sensor_id;sensor_type;location;lat;lon;timestamp;P1;durP1;ratioP1;P2;durP2;ratioP2
83290;SDS011;73860;48.866;9.316;2023-11-21T00:00:14;6.90;;;1.70;;
83290;SDS011;73860;48.866;9.316;2023-11-21T00:02:44;6.10;;;1.80;;
83290;SDS011;73860;48.866;9.316;2023-11-21T00:05:13;5.20;;;1.50;;
83290;SDS011;73860;48.866;9.316;2023-11-21T00:07:43;7.40;;;2.60;;
83290;SDS011;73860;48.866;9.316;2023-11-21T00:10:12;7.40;;;2.50;;
83290;SDS011;73860;48.866;9.316;2023-11-21T00:12:42;5.10;;;1.60;;
83290;SDS011;73860;48.866;9.316;2023-11-21T00:17:42;6.30;;;1.90;;
83290;SDS011;73860;48.866;9.316;2023-11-21T00:20:11;6.80;;;1.70;;
83290;SDS011;73860;48.866;9.316;2023-11-21T00:22:40;4.50;;;1.50;;
83290;SDS011;73860;48.866;9.316;2023-11-21T00:25:09;6.30;;;1.90;;
83290;SDS011;73860;48.866;9.316;2023-11-21T00:27:41;4.40;;;1.60;;
83290;SDS011;73860;48.866;9.316;2023-11-21T00:30:11;5.70;;;1.90;;
83290;SDS011;73860;48.866;9.316;2023-11-21T00:32:42;7.50;;;1.70;;
83290;SDS011;73860;48.866;9.316;2023-11-21T00:35:11;5.00;;;1.70;;
83290;SDS011;73860;48.866;9.316;2023-11-21T00:37:40;6.70;;;1.90;;
83290;SDS011;73860;48.866;9.316;2023-11-21T00:40:10;7.10;;;1.80;;
83290;SDS011;73860;48.866;9.316;2023-11-21T00:42:41;4.30;;;1.50;;
83290;SDS011;73860;48.866;9.316;2023-11-21T00:45:11;5.10;;;1.40;;
83290;SDS011;73860;48.866;9.316;2023-11-21T00:47:40;4.90;;;1.50;;
83290;SDS011;73860;48.866;9.316;2023-11-21T00:50:09;6.90;;;2.00;;
83290;SDS011;73860;48.866;9.316;2023-11-21T00:52:39;4.40;;;1.30;;
83290;SDS011;73860;48.866;9.316;2023-11-21T00:55:09;5.20;;;1.50;;
83290;SDS011;73860;48.866;9.316;2023-11-21T00:57:38;7.20;;;1.70;;
83290;SDS011;73860;48.866;9.316;2023-11-21T01:00:08;5.90;;;1.90;;
83290;SDS011;73860;48.866;9.316;2023-11-21T01:02:40;5.20;;;1.80;;
83290;SDS011;73860;48.866;9.316;2023-11-21T01:05:10;7.90;;;2.00;;
83290;SDS011;73860;48.866;9.316;2023-11-21T01:07:39;8.80;;;2.60;;
83290;SDS011;73860;48.866;9.316;2023-11-21T01:10:09;3.50;;;1.50;;
83290;SDS011;73860;48.866;9.316;2023-11-21T01:12:38;5.20;;;1.70;;
83290;SDS011;73860;48.866;9.316;2023-11-21T01:15:08;6.60;;;1.90;;
83290;SDS011;73860;48.866;9.316;2023-11-21T01:17:38;6.40;;;2.30;;
83290;SDS011;73860;48.866;9.316;2023-11-21T01:20:09;5.90;;;2.10;;
83290;SDS011;73860;48.866;9.316;2023-11-21T01:22:39;5.80;;;1.90;;
83290;SDS011;73860;48.866;9.316;2023-11-21T01:25:08;6.10;;;1.90;;
83290;SDS011;73860;48.866;9.316;2023-11-21T01:27:38;5.60;;;1.90;;
83290;SDS011;73860;48.866;9.316;2023-11-21T01:30:08;6.60;;;1.70;;
83290;SDS011;73860;48.866;9.316;2023-11-21T01:32:38;6.00;;;1.80;;
83290;SDS011;73860;48.866;9.316;2023-11-21T01:35:07;7.50;;;1.90;;
83290;SDS011;73860;48.866;9.316;2023-11-21T01:37:37;7.20;;;2.00;;
83290;SDS011;73860;48.866;9.316;2023-11-21T01:40:10;6.40;;;2.10;;
83290;SDS011;73860;48.866;9.316;2023-11-21T01:42:39;5.50;;;2.00;;
83290;SDS011;73860;48.866;9.316;2023-11-21T01:45:10;5.50;;;2.00;;
83290;SDS011;73860;48.866;9.316;2023-11-21T01:47:39;6.30;;;2.50;;
83290;SDS011;73860;48.866;9.316;2023-11-21T01:50:11;3.40;;;1.40;;
83290;SDS011;73860;48.866;9.316;2023-11-21T01:52:43;8.50;;;1.60;;
83290;SDS011;73860;48.866;9.316;2023-11-21T01:55:13;6.10;;;1.40;;
83290;SDS011;73860;48.866;9.316;2023-11-21T01:57:44;5.20;;;1.20;;
83290;SDS011;73860;48.866;9.316;2023-11-21T02:00:14;4.40;;;1.50;;
83290;SDS011;73860;48.866;9.316;2023-11-21T02:02:45;5.10;;;1.60;;
83290;SDS011;73860;48.866;9.316;2023-11-21T02:05:15;3.60;;;1.30;;
83290;SDS011;73860;48.866;9.316;2023-11-21T02:07:45;4.20;;;1.60;;
83290;SDS011;73860;48.866;9.316;2023-11-21T02:10:15;6.50;;;1.60;;
83290;SDS011;73860;48.866;9.316;2023-11-21T02:12:49;6.30;;;1.70;;
83290;SDS011;73860;48.866;9.316;2023-11-21T02:15:18;4.50;;;1.40;;
83290;SDS011;73860;48.866;9.316;2023-11-21T02:17:48;5.50;;;1.60;;
83290;SDS011;73860;48.866;9.316;2023-11-21T02:20:18;5.80;;;1.40;;
83290;SDS011;73860;48.866;9.316;2023-11-21T02:22:50;6.90;;;1.30;;
83290;SDS011;73860;48.866;9.316;2023-11-21T02:25:24;4.80;;;1.50;;
83290;SDS011;73860;48.866;9.316;2023-11-21T02:27:54;5.20;;;1.00;;
83290;SDS011;73860;48.866;9.316;2023-11-21T02:30:24;4.20;;;1.80;;
83290;SDS011;73860;48.866;9.316;2023-11-21T02:32:54;3.20;;;1.20;;
83290;SDS011;73860;48.866;9.316;2023-11-21T02:35:24;4.50;;;1.70;;
83290;SDS011;73860;48.866;9.316;2023-11-21T02:37:53;5.20;;;1.30;;
83290;SDS011;73860;48.866;9.316;2023-11-21T02:40:22;5.90;;;1.40;;
83290;SDS011;73860;48.866;9.316;2023-11-21T02:42:52;3.70;;;1.30;;
83290;SDS011;73860;48.866;9.316;2023-11-21T02:45:24;6.00;;;1.50;;
83290;SDS011;73860;48.866;9.316;2023-11-21T02:47:53;4.70;;;1.30;;
83290;SDS011;73860;48.866;9.316;2023-11-21T02:50:23;4.20;;;1.50;;
83290;SDS011;73860;48.866;9.316;2023-11-21T02:52:52;3.20;;;1.20;;
83290;SDS011;73860;48.866;9.316;2023-11-21T02:55:24;3.80;;;1.30;;
83290;SDS011;73860;48.866;9.316;2023-11-21T02:57:53;4.30;;;0.90;;
83290;SDS011;73860;48.866;9.316;2023-11-21T03:00:23;3.00;;;1.10;;
83290;SDS011;73860;48.866;9.316;2023-11-21T03:02:52;3.00;;;0.90;;
83290;SDS011;73860;48.866;9.316;2023-11-21T03:05:22;3.50;;;1.00;;
83290;SDS011;73860;48.866;9.316;2023-11-21T03:07:51;5.00;;;1.50;;
83290;SDS011;73860;48.866;9.316;2023-11-21T03:10:20;6.70;;;2.20;;
83290;SDS011;73860;48.866;9.316;2023-11-21T03:12:50;5.10;;;1.30;;
83290;SDS011;73860;48.866;9.316;2023-11-21T03:15:19;2.80;;;0.90;;
83290;SDS011;73860;48.866;9.316;2023-11-21T03:17:48;4.00;;;1.20;;
83290;SDS011;73860;48.866;9.316;2023-11-21T03:20:17;4.00;;;1.00;;
83290;SDS011;73860;48.866;9.316;2023-11-21T03:22:46;4.40;;;1.20;;
83290;SDS011;73860;48.866;9.316;2023-11-21T03:25:16;4.50;;;1.10;;
83290;SDS011;73860;48.866;9.316;2023-11-21T03:27:45;3.90;;;1.20;;
83290;SDS011;73860;48.866;9.316;2023-11-21T03:30:14;4.40;;;1.20;;
83290;SDS011;73860;48.866;9.316;2023-11-21T03:32:43;2.50;;;0.90;;
83290;SDS011;73860;48.866;9.316;2023-11-21T03:35:12;5.90;;;1.30;;
83290;SDS011;73860;48.866;9.316;2023-11-21T03:37:41;4.40;;;1.30;;
83290;SDS011;73860;48.866;9.316;2023-11-21T03:40:11;3.00;;;1.20;;
83290;SDS011;73860;48.866;9.316;2023-11-21T03:42:40;4.60;;;1.30;;
83290;SDS011;73860;48.866;9.316;2023-11-21T03:45:09;7.80;;;1.20;;
83290;SDS011;73860;48.866;9.316;2023-11-21T03:47:39;4.50;;;1.10;;
83290;SDS011;73860;48.866;9.316;2023-11-21T03:50:09;5.20;;;1.20;;
83290;SDS011;73860;48.866;9.316;2023-11-21T03:52:38;3.30;;;0.80;;
83290;SDS011;73860;48.866;9.316;2023-11-21T03:55:08;3.70;;;1.00;;
83290;SDS011;73860;48.866;9.316;2023-11-21T03:57:37;2.70;;;0.90;;
83290;SDS011;73860;48.866;9.316;2023-11-21T04:00:07;4.90;;;1.20;;
83290;SDS011;73860;48.866;9.316;2023-11-21T04:02:38;6.00;;;1.00;;
83290;SDS011;73860;48.866;9.316;2023-11-21T04:05:07;3.90;;;1.00;;
83290;SDS011;73860;48.866;9.316;2023-11-21T04:07:36;4.90;;;1.40;;
83290;SDS011;73860;48.866;9.316;2023-11-21T04:10:06;3.50;;;0.90;;
83290;SDS011;73860;48.866;9.316;2023-11-21T04:12:38;3.90;;;1.20;;
83290;SDS011;73860;48.866;9.316;2023-11-21T04:15:09;4.70;;;1.80;;
83290;SDS011;73860;48.866;9.316;2023-11-21T04:17:39;3.70;;;1.30;;
83290;SDS011;73860;48.866;9.316;2023-11-21T04:20:09;5.70;;;1.00;;
83290;SDS011;73860;48.866;9.316;2023-11-21T04:22:38;3.90;;;1.00;;
83290;SDS011;73860;48.866;9.316;2023-11-21T04:25:10;4.10;;;0.90;;
83290;SDS011;73860;48.866;9.316;2023-11-21T04:27:40;3.20;;;1.00;;
83290;SDS011;73860;48.866;9.316;2023-11-21T04:30:12;4.30;;;1.10;;
83290;SDS011;73860;48.866;9.316;2023-11-21T04:32:41;4.80;;;1.10;;
83290;SDS011;73860;48.866;9.316;2023-11-21T04:35:10;4.30;;;1.10;;
83290;SDS011;73860;48.866;9.316;2023-11-21T04:37:40;3.00;;;1.20;;
83290;SDS011;73860;48.866;9.316;2023-11-21T04:40:10;2.20;;;1.00;;
83290;SDS011;73860;48.866;9.316;2023-11-21T04:42:39;4.00;;;1.30;;
83290;SDS011;73860;48.866;9.316;2023-11-21T04:45:09;2.70;;;0.80;;
83290;SDS011;73860;48.866;9.316;2023-11-21T04:47:38;4.50;;;1.00;;
83290;SDS011;73860;48.866;9.316;2023-11-21T04:50:08;3.00;;;1.00;;
83290;SDS011;73860;48.866;9.316;2023-11-21T04:52:38;3.90;;;1.00;;
83290;SDS011;73860;48.866;9.316;2023-11-21T04:55:08;4.30;;;1.10;;
83290;SDS011;73860;48.866;9.316;2023-11-21T04:57:37;3.80;;;0.90;;
83290;SDS011;73860;48.866;9.316;2023-11-21T05:00:08;3.00;;;0.80;;
83290;SDS011;73860;48.866;9.316;2023-11-21T05:02:39;3.80;;;0.90;;
83290;SDS011;73860;48.866;9.316;2023-11-21T05:05:10;1.50;;;0.60;;
83290;SDS011;73860;48.866;9.316;2023-11-21T05:07:40;4.40;;;0.80;;
83290;SDS011;73860;48.866;9.316;2023-11-21T05:10:10;3.90;;;1.00;;
83290;SDS011;73860;48.866;9.316;2023-11-21T05:12:41;2.40;;;0.90;;
83290;SDS011;73860;48.866;9.316;2023-11-21T05:15:12;3.50;;;1.00;;
83290;SDS011;73860;48.866;9.316;2023-11-21T05:17:43;3.90;;;1.00;;
83290;SDS011;73860;48.866;9.316;2023-11-21T05:20:16;2.00;;;1.00;;
83290;SDS011;73860;48.866;9.316;2023-11-21T05:22:47;3.70;;;0.80;;
83290;SDS011;73860;48.866;9.316;2023-11-21T05:25:16;3.30;;;1.60;;
83290;SDS011;73860;48.866;9.316;2023-11-21T05:27:45;4.20;;;1.00;;
83290;SDS011;73860;48.866;9.316;2023-11-21T05:30:15;3.10;;;1.20;;
83290;SDS011;73860;48.866;9.316;2023-11-21T05:32:44;6.10;;;1.30;;
83290;SDS011;73860;48.866;9.316;2023-11-21T05:35:13;3.90;;;1.10;;
83290;SDS011;73860;48.866;9.316;2023-11-21T05:37:43;3.80;;;1.00;;
83290;SDS011;73860;48.866;9.316;2023-11-21T05:40:13;2.30;;;1.20;;
83290;SDS011;73860;48.866;9.316;2023-11-21T05:42:42;3.80;;;1.20;;
83290;SDS011;73860;48.866;9.316;2023-11-21T05:45:11;6.40;;;1.40;;
83290;SDS011;73860;48.866;9.316;2023-11-21T05:47:41;4.50;;;1.00;;
83290;SDS011;73860;48.866;9.316;2023-11-21T05:50:12;3.00;;;1.00;;
83290;SDS011;73860;48.866;9.316;2023-11-21T05:52:42;3.50;;;1.00;;
83290;SDS011;73860;48.866;9.316;2023-11-21T05:55:12;4.10;;;1.00;;
83290;SDS011;73860;48.866;9.316;2023-11-21T05:57:42;3.70;;;1.10;;
83290;SDS011;73860;48.866;9.316;2023-11-21T06:00:12;4.90;;;1.10;;
83290;SDS011;73860;48.866;9.316;2023-11-21T06:02:46;6.50;;;1.50;;
83290;SDS011;73860;48.866;9.316;2023-11-21T06:05:19;3.60;;;1.00;;
83290;SDS011;73860;48.866;9.316;2023-11-21T06:07:49;3.70;;;1.00;;
83290;SDS011;73860;48.866;9.316;2023-11-21T06:10:19;4.20;;;1.00;;
83290;SDS011;73860;48.866;9.316;2023-11-21T06:12:50;3.60;;;1.20;;
83290;SDS011;73860;48.866;9.316;2023-11-21T06:15:19;4.10;;;1.00;;
83290;SDS011;73860;48.866;9.316;2023-11-21T06:17:49;5.20;;;1.20;;
83290;SDS011;73860;48.866;9.316;2023-11-21T06:20:20;4.80;;;1.20;;
83290;SDS011;73860;48.866;9.316;2023-11-21T06:22:50;5.10;;;1.30;;
83290;SDS011;73860;48.866;9.316;2023-11-21T06:25:20;6.80;;;1.70;;
83290;SDS011;73860;48.866;9.316;2023-11-21T06:27:49;5.10;;;1.30;;
83290;SDS011;73860;48.866;9.316;2023-11-21T06:30:20;5.10;;;1.70;;
83290;SDS011;73860;48.866;9.316;2023-11-21T06:32:49;6.60;;;2.30;;
83290;SDS011;73860;48.866;9.316;2023-11-21T06:35:19;6.10;;;2.10;;
83290;SDS011;73860;48.866;9.316;2023-11-21T06:37:48;5.70;;;2.00;;
83290;SDS011;73860;48.866;9.316;2023-11-21T06:40:18;10.40;;;3.00;;
83290;SDS011;73860;48.866;9.316;2023-11-21T06:42:48;13.00;;;5.00;;
83290;SDS011;73860;48.866;9.316;2023-11-21T06:45:18;9.40;;;4.00;;
83290;SDS011;73860;48.866;9.316;2023-11-21T06:47:48;9.00;;;4.70;;
83290;SDS011;73860;48.866;9.316;2023-11-21T06:50:17;9.70;;;4.10;;
83290;SDS011;73860;48.866;9.316;2023-11-21T06:52:47;8.00;;;3.50;;
83290;SDS011;73860;48.866;9.316;2023-11-21T06:55:16;8.60;;;3.90;;
83290;SDS011;73860;48.866;9.316;2023-11-21T06:57:45;8.20;;;3.40;;
83290;SDS011;73860;48.866;9.316;2023-11-21T07:00:16;7.70;;;2.30;;
83290;SDS011;73860;48.866;9.316;2023-11-21T07:02:46;6.10;;;2.30;;
83290;SDS011;73860;48.866;9.316;2023-11-21T07:05:15;6.30;;;2.10;;
83290;SDS011;73860;48.866;9.316;2023-11-21T07:07:47;4.90;;;1.70;;
83290;SDS011;73860;48.866;9.316;2023-11-21T07:10:17;5.30;;;1.60;;
83290;SDS011;73860;48.866;9.316;2023-11-21T07:12:46;6.40;;;1.90;;
83290;SDS011;73860;48.866;9.316;2023-11-21T07:15:15;7.70;;;2.10;;
83290;SDS011;73860;48.866;9.316;2023-11-21T07:17:45;7.10;;;2.10;;
83290;SDS011;73860;48.866;9.316;2023-11-21T07:20:15;7.50;;;2.20;;
83290;SDS011;73860;48.866;9.316;2023-11-21T07:22:44;6.40;;;2.40;;
83290;SDS011;73860;48.866;9.316;2023-11-21T07:25:13;7.00;;;2.20;;
83290;SDS011;73860;48.866;9.316;2023-11-21T07:27:42;5.80;;;2.00;;
83290;SDS011;73860;48.866;9.316;2023-11-21T07:30:13;6.70;;;2.00;;
83290;SDS011;73860;48.866;9.316;2023-11-21T07:32:42;5.70;;;2.20;;
83290;SDS011;73860;48.866;9.316;2023-11-21T07:35:14;5.30;;;1.80;;
83290;SDS011;73860;48.866;9.316;2023-11-21T07:37:43;5.40;;;1.40;;
83290;SDS011;73860;48.866;9.316;2023-11-21T07:40:14;3.60;;;1.30;;
83290;SDS011;73860;48.866;9.316;2023-11-21T07:42:44;5.20;;;2.40;;
83290;SDS011;73860;48.866;9.316;2023-11-21T07:45:13;6.50;;;2.10;;
83290;SDS011;73860;48.866;9.316;2023-11-21T07:47:43;3.60;;;1.40;;
83290;SDS011;73860;48.866;9.316;2023-11-21T07:50:12;4.70;;;1.70;;
83290;SDS011;73860;48.866;9.316;2023-11-21T07:52:41;4.80;;;1.80;;
83290;SDS011;73860;48.866;9.316;2023-11-21T07:55:10;6.00;;;1.60;;
83290;SDS011;73860;48.866;9.316;2023-11-21T07:57:40;6.00;;;1.90;;
83290;SDS011;73860;48.866;9.316;2023-11-21T08:00:10;4.30;;;1.70;;
83290;SDS011;73860;48.866;9.316;2023-11-21T08:02:41;4.70;;;1.60;;
83290;SDS011;73860;48.866;9.316;2023-11-21T08:05:12;6.50;;;1.80;;
83290;SDS011;73860;48.866;9.316;2023-11-21T08:07:41;5.10;;;2.20;;
83290;SDS011;73860;48.866;9.316;2023-11-21T08:10:11;5.70;;;1.90;;
83290;SDS011;73860;48.866;9.316;2023-11-21T08:12:40;5.30;;;2.20;;
83290;SDS011;73860;48.866;9.316;2023-11-21T08:15:10;3.60;;;1.50;;
83290;SDS011;73860;48.866;9.316;2023-11-21T08:17:39;5.20;;;2.40;;
83290;SDS011;73860;48.866;9.316;2023-11-21T08:20:10;5.50;;;2.10;;
83290;SDS011;73860;48.866;9.316;2023-11-21T08:22:43;9.40;;;4.10;;
83290;SDS011;73860;48.866;9.316;2023-11-21T08:25:14;15.00;;;7.70;;
83290;SDS011;73860;48.866;9.316;2023-11-21T08:27:46;14.20;;;6.50;;
83290;SDS011;73860;48.866;9.316;2023-11-21T08:30:15;9.20;;;3.20;;
83290;SDS011;73860;48.866;9.316;2023-11-21T08:32:45;7.70;;;3.60;;
83290;SDS011;73860;48.866;9.316;2023-11-21T08:35:14;10.80;;;5.10;;
83290;SDS011;73860;48.866;9.316;2023-11-21T08:37:44;16.70;;;9.80;;
83290;SDS011;73860;48.866;9.316;2023-11-21T08:40:13;8.70;;;3.80;;
83290;SDS011;73860;48.866;9.316;2023-11-21T08:42:43;4.90;;;1.90;;
83290;SDS011;73860;48.866;9.316;2023-11-21T08:45:13;4.50;;;1.80;;
83290;SDS011;73860;48.866;9.316;2023-11-21T08:47:43;3.80;;;1.60;;
83290;SDS011;73860;48.866;9.316;2023-11-21T08:50:13;5.70;;;2.00;;
83290;SDS011;73860;48.866;9.316;2023-11-21T08:52:43;6.30;;;2.30;;
83290;SDS011;73860;48.866;9.316;2023-11-21T08:55:13;5.40;;;2.20;;
83290;SDS011;73860;48.866;9.316;2023-11-21T08:57:43;6.40;;;2.30;;
83290;SDS011;73860;48.866;9.316;2023-11-21T09:00:13;5.20;;;2.10;;
83290;SDS011;73860;48.866;9.316;2023-11-21T09:02:43;5.00;;;1.90;;
83290;SDS011;73860;48.866;9.316;2023-11-21T09:05:13;4.80;;;2.00;;
83290;SDS011;73860;48.866;9.316;2023-11-21T09:07:43;6.60;;;2.20;;
83290;SDS011;73860;48.866;9.316;2023-11-21T09:10:15;6.20;;;2.30;;
83290;SDS011;73860;48.866;9.316;2023-11-21T09:12:44;5.40;;;1.80;;
83290;SDS011;73860;48.866;9.316;2023-11-21T09:15:13;4.80;;;1.70;;
83290;SDS011;73860;48.866;9.316;2023-11-21T09:17:42;4.60;;;2.00;;
83290;SDS011;73860;48.866;9.316;2023-11-21T09:20:12;5.00;;;1.90;;
83290;SDS011;73860;48.866;9.316;2023-11-21T09:22:42;8.40;;;3.00;;
83290;SDS011;73860;48.866;9.316;2023-11-21T09:25:12;7.50;;;3.00;;
83290;SDS011;73860;48.866;9.316;2023-11-21T09:27:42;10.40;;;5.30;;
83290;SDS011;73860;48.866;9.316;2023-11-21T09:30:12;10.10;;;4.30;;
83290;SDS011;73860;48.866;9.316;2023-11-21T09:32:42;7.40;;;3.30;;
83290;SDS011;73860;48.866;9.316;2023-11-21T09:35:13;8.40;;;3.60;;
83290;SDS011;73860;48.866;9.316;2023-11-21T09:37:44;4.20;;;1.80;;
83290;SDS011;73860;48.866;9.316;2023-11-21T09:40:13;6.10;;;2.50;;
83290;SDS011;73860;48.866;9.316;2023-11-21T09:42:47;4.50;;;1.80;;
83290;SDS011;73860;48.866;9.316;2023-11-21T09:45:21;3.20;;;1.20;;
83290;SDS011;73860;48.866;9.316;2023-11-21T09:47:54;4.20;;;1.10;;
83290;SDS011;73860;48.866;9.316;2023-11-21T09:50:24;3.60;;;1.10;;
83290;SDS011;73860;48.866;9.316;2023-11-21T09:53:01;3.40;;;1.10;;
83290;SDS011;73860;48.866;9.316;2023-11-21T09:55:37;6.50;;;2.40;;
83290;SDS011;73860;48.866;9.316;2023-11-21T09:58:07;2.40;;;0.90;;
83290;SDS011;73860;48.866;9.316;2023-11-21T10:00:40;4.20;;;1.80;;
83290;SDS011;73860;48.866;9.316;2023-11-21T10:03:10;7.70;;;3.10;;
83290;SDS011;73860;48.866;9.316;2023-11-21T10:05:39;3.80;;;1.30;;
83290;SDS011;73860;48.866;9.316;2023-11-21T10:08:10;5.30;;;1.70;;
83290;SDS011;73860;48.866;9.316;2023-11-21T10:10:44;2.70;;;0.90;;
83290;SDS011;73860;48.866;9.316;2023-11-21T10:13:14;2.60;;;0.70;;
83290;SDS011;73860;48.866;9.316;2023-11-21T10:15:44;1.40;;;0.70;;
83290;SDS011;73860;48.866;9.316;2023-11-21T10:18:15;3.40;;;1.40;;
83290;SDS011;73860;48.866;9.316;2023-11-21T10:20:45;5.60;;;1.60;;
83290;SDS011;73860;48.866;9.316;2023-11-21T10:23:18;2.50;;;1.20;;
83290;SDS011;73860;48.866;9.316;2023-11-21T10:25:48;5.30;;;2.10;;
83290;SDS011;73860;48.866;9.316;2023-11-21T10:28:18;3.60;;;1.30;;
83290;SDS011;73860;48.866;9.316;2023-11-21T10:30:48;2.60;;;1.00;;
83290;SDS011;73860;48.866;9.316;2023-11-21T10:33:17;3.20;;;1.20;;
83290;SDS011;73860;48.866;9.316;2023-11-21T10:35:48;4.70;;;2.40;;
83290;SDS011;73860;48.866;9.316;2023-11-21T10:38:19;3.00;;;1.10;;
83290;SDS011;73860;48.866;9.316;2023-11-21T10:40:50;5.30;;;2.60;;
83290;SDS011;73860;48.866;9.316;2023-11-21T10:43:21;5.30;;;2.30;;
83290;SDS011;73860;48.866;9.316;2023-11-21T10:45:54;4.60;;;1.30;;
83290;SDS011;73860;48.866;9.316;2023-11-21T10:48:26;2.80;;;0.80;;
83290;SDS011;73860;48.866;9.316;2023-11-21T10:50:56;3.20;;;1.70;;
83290;SDS011;73860;48.866;9.316;2023-11-21T10:53:28;5.30;;;1.90;;
83290;SDS011;73860;48.866;9.316;2023-11-21T10:58:29;2.50;;;1.10;;
83290;SDS011;73860;48.866;9.316;2023-11-21T11:00:59;3.00;;;1.40;;
83290;SDS011;73860;48.866;9.316;2023-11-21T11:03:30;2.80;;;1.00;;
83290;SDS011;73860;48.866;9.316;2023-11-21T11:06:00;3.40;;;1.50;;
83290;SDS011;73860;48.866;9.316;2023-11-21T11:08:29;3.50;;;1.10;;
83290;SDS011;73860;48.866;9.316;2023-11-21T11:10:58;8.50;;;4.00;;
83290;SDS011;73860;48.866;9.316;2023-11-21T11:13:27;6.60;;;1.90;;
83290;SDS011;73860;48.866;9.316;2023-11-21T11:15:57;9.50;;;2.40;;
83290;SDS011;73860;48.866;9.316;2023-11-21T11:18:28;6.80;;;2.10;;
83290;SDS011;73860;48.866;9.316;2023-11-21T11:21:00;4.20;;;1.20;;
83290;SDS011;73860;48.866;9.316;2023-11-21T11:23:46;3.00;;;1.20;;
83290;SDS011;73860;48.866;9.316;2023-11-21T11:26:27;2.80;;;1.20;;
83290;SDS011;73860;48.866;9.316;2023-11-21T11:29:08;3.00;;;0.90;;
83290;SDS011;73860;48.866;9.316;2023-11-21T11:31:54;4.80;;;1.60;;
83290;SDS011;73860;48.866;9.316;2023-11-21T11:34:32;3.20;;;1.50;;
83290;SDS011;73860;48.866;9.316;2023-11-21T11:37:04;4.00;;;2.10;;
83290;SDS011;73860;48.866;9.316;2023-11-21T11:39:36;2.50;;;1.10;;
83290;SDS011;73860;48.866;9.316;2023-11-21T11:42:08;5.00;;;2.00;;
83290;SDS011;73860;48.866;9.316;2023-11-21T11:44:49;5.50;;;2.40;;
83290;SDS011;73860;48.866;9.316;2023-11-21T11:47:21;2.50;;;1.20;;
83290;SDS011;73860;48.866;9.316;2023-11-21T11:50:06;5.00;;;1.50;;
83290;SDS011;73860;48.866;9.316;2023-11-21T11:52:40;4.10;;;1.80;;
83290;SDS011;73860;48.866;9.316;2023-11-21T11:55:10;4.40;;;2.00;;
83290;SDS011;73860;48.866;9.316;2023-11-21T11:57:42;3.30;;;1.50;;
83290;SDS011;73860;48.866;9.316;2023-11-21T12:00:14;3.70;;;1.70;;
83290;SDS011;73860;48.866;9.316;2023-11-21T12:02:46;4.10;;;2.30;;
83290;SDS011;73860;48.866;9.316;2023-11-21T12:05:18;3.30;;;1.70;;
83290;SDS011;73860;48.866;9.316;2023-11-21T12:07:48;4.60;;;2.30;;
83290;SDS011;73860;48.866;9.316;2023-11-21T12:10:20;4.90;;;2.50;;
83290;SDS011;73860;48.866;9.316;2023-11-21T12:12:51;6.20;;;3.00;;
83290;SDS011;73860;48.866;9.316;2023-11-21T12:15:22;6.40;;;2.70;;
83290;SDS011;73860;48.866;9.316;2023-11-21T12:17:51;3.40;;;1.80;;
83290;SDS011;73860;48.866;9.316;2023-11-21T12:20:21;2.20;;;1.40;;
83290;SDS011;73860;48.866;9.316;2023-11-21T12:22:51;4.70;;;2.20;;
83290;SDS011;73860;48.866;9.316;2023-11-21T12:25:22;4.10;;;1.70;;
83290;SDS011;73860;48.866;9.316;2023-11-21T12:27:55;6.50;;;2.30;;
83290;SDS011;73860;48.866;9.316;2023-11-21T12:30:26;4.40;;;1.60;;
83290;SDS011;73860;48.866;9.316;2023-11-21T12:32:58;3.00;;;1.30;;
83290;SDS011;73860;48.866;9.316;2023-11-21T12:35:28;3.20;;;1.50;;
83290;SDS011;73860;48.866;9.316;2023-11-21T12:38:00;5.10;;;2.50;;
83290;SDS011;73860;48.866;9.316;2023-11-21T12:40:30;5.60;;;2.50;;
83290;SDS011;73860;48.866;9.316;2023-11-21T12:43:00;6.60;;;3.70;;
83290;SDS011;73860;48.866;9.316;2023-11-21T12:45:30;3.60;;;1.50;;
83290;SDS011;73860;48.866;9.316;2023-11-21T12:48:01;3.80;;;1.80;;
83290;SDS011;73860;48.866;9.316;2023-11-21T12:50:34;6.10;;;3.10;;
83290;SDS011;73860;48.866;9.316;2023-11-21T12:53:05;4.20;;;1.80;;
83290;SDS011;73860;48.866;9.316;2023-11-21T12:55:36;4.50;;;2.00;;
83290;SDS011;73860;48.866;9.316;2023-11-21T12:58:06;3.70;;;1.70;;
83290;SDS011;73860;48.866;9.316;2023-11-21T13:00:36;4.30;;;1.70;;
83290;SDS011;73860;48.866;9.316;2023-11-21T13:05:39;8.10;;;3.90;;
83290;SDS011;73860;48.866;9.316;2023-11-21T13:08:11;4.40;;;2.10;;
83290;SDS011;73860;48.866;9.316;2023-11-21T13:13:13;5.30;;;2.50;;
83290;SDS011;73860;48.866;9.316;2023-11-21T13:15:48;4.10;;;2.20;;
83290;SDS011;73860;48.866;9.316;2023-11-21T13:18:18;5.20;;;2.20;;
83290;SDS011;73860;48.866;9.316;2023-11-21T13:20:49;8.70;;;5.40;;
83290;SDS011;73860;48.866;9.316;2023-11-21T13:23:19;4.90;;;2.30;;
83290;SDS011;73860;48.866;9.316;2023-11-21T13:25:49;3.10;;;1.50;;
83290;SDS011;73860;48.866;9.316;2023-11-21T13:28:18;5.80;;;2.40;;
83290;SDS011;73860;48.866;9.316;2023-11-21T13:30:48;2.70;;;1.00;;
83290;SDS011;73860;48.866;9.316;2023-11-21T13:33:19;2.60;;;1.20;;
83290;SDS011;73860;48.866;9.316;2023-11-21T13:35:54;4.70;;;1.60;;
83290;SDS011;73860;48.866;9.316;2023-11-21T13:38:24;4.20;;;1.90;;
83290;SDS011;73860;48.866;9.316;2023-11-21T13:40:58;2.50;;;1.10;;
83290;SDS011;73860;48.866;9.316;2023-11-21T13:43:27;3.40;;;1.70;;
83290;SDS011;73860;48.866;9.316;2023-11-21T13:45:57;4.50;;;1.90;;
83290;SDS011;73860;48.866;9.316;2023-11-21T13:48:30;5.80;;;2.50;;
83290;SDS011;73860;48.866;9.316;2023-11-21T13:51:07;5.60;;;2.70;;
83290;SDS011;73860;48.866;9.316;2023-11-21T13:53:43;12.00;;;7.70;;
83290;SDS011;73860;48.866;9.316;2023-11-21T13:56:14;11.60;;;8.70;;
83290;SDS011;73860;48.866;9.316;2023-11-21T13:58:47;3.70;;;1.50;;
83290;SDS011;73860;48.866;9.316;2023-11-21T14:01:18;2.00;;;0.80;;
83290;SDS011;73860;48.866;9.316;2023-11-21T14:04:11;1.10;;;0.50;;
83290;SDS011;73860;48.866;9.316;2023-11-21T14:06:46;1.30;;;0.60;;
83290;SDS011;73860;48.866;9.316;2023-11-21T14:09:20;3.30;;;1.00;;
83290;SDS011;73860;48.866;9.316;2023-11-21T14:11:51;2.80;;;1.00;;
83290;SDS011;73860;48.866;9.316;2023-11-21T14:14:23;4.00;;;1.10;;
83290;SDS011;73860;48.866;9.316;2023-11-21T14:16:54;4.50;;;1.70;;
83290;SDS011;73860;48.866;9.316;2023-11-21T14:19:25;3.30;;;1.20;;
83290;SDS011;73860;48.866;9.316;2023-11-21T14:21:58;3.60;;;1.20;;
83290;SDS011;73860;48.866;9.316;2023-11-21T14:24:28;2.20;;;1.40;;
83290;SDS011;73860;48.866;9.316;2023-11-21T14:26:57;1.70;;;0.50;;
83290;SDS011;73860;48.866;9.316;2023-11-21T14:29:27;1.00;;;0.50;;
83290;SDS011;73860;48.866;9.316;2023-11-21T14:31:56;1.80;;;0.70;;
83290;SDS011;73860;48.866;9.316;2023-11-21T14:34:25;3.20;;;1.10;;
83290;SDS011;73860;48.866;9.316;2023-11-21T14:36:54;2.10;;;0.90;;
83290;SDS011;73860;48.866;9.316;2023-11-21T14:39:23;2.00;;;1.10;;
83290;SDS011;73860;48.866;9.316;2023-11-21T14:41:54;3.40;;;1.20;;
83290;SDS011;73860;48.866;9.316;2023-11-21T14:44:25;1.60;;;0.80;;
83290;SDS011;73860;48.866;9.316;2023-11-21T14:46:59;3.10;;;0.90;;
83290;SDS011;73860;48.866;9.316;2023-11-21T14:49:32;1.90;;;0.90;;
83290;SDS011;73860;48.866;9.316;2023-11-21T14:52:16;1.60;;;0.90;;
83290;SDS011;73860;48.866;9.316;2023-11-21T14:54:58;1.30;;;0.60;;
83290;SDS011;73860;48.866;9.316;2023-11-21T14:57:45;2.50;;;0.80;;
83290;SDS011;73860;48.866;9.316;2023-11-21T15:00:17;2.40;;;1.00;;
83290;SDS011;73860;48.866;9.316;2023-11-21T15:03:11;3.40;;;1.10;;
83290;SDS011;73860;48.866;9.316;2023-11-21T15:06:03;3.10;;;1.40;;
83290;SDS011;73860;48.866;9.316;2023-11-21T15:08:49;4.60;;;1.40;;
83290;SDS011;73860;48.866;9.316;2023-11-21T15:11:25;5.00;;;1.50;;
83290;SDS011;73860;48.866;9.316;2023-11-21T15:13:57;3.50;;;1.40;;
83290;SDS011;73860;48.866;9.316;2023-11-21T15:16:28;3.10;;;1.30;;
83290;SDS011;73860;48.866;9.316;2023-11-21T15:18:58;4.10;;;1.40;;